sensor_id;sensor_type;location;lat;lon;timestamp;P1;durP1;ratioP1;P2;durP2;ratioP2
16262;SDS011;8239;48.594;8.598;2022-12-10T00:01:24;49.53;;;23.20;;
16262;SDS011;8239;48.594;8.598;2022-12-10T00:03:51;58.77;;;24.40;;
16262;SDS011;8239;48.594;8.598;2022-12-10T00:06:19;57.27;;;23.47;;
16262;SDS011;8239;48.594;8.598;2022-12-10T00:08:48;50.57;;;23.77;;
16262;SDS011;8239;48.594;8.598;2022-12-10T00:11:16;52.23;;;23.50;;
16262;SDS011;8239;48.594;8.598;2022-12-10T00:13:44;46.77;;;21.70;;
16262;SDS011;8239;48.594;8.598;2022-12-10T00:16:13;46.20;;;22.70;;
16262;SDS011;8239;48.594;8.598;2022-12-10T00:18:43;45.93;;;22.23;;
16262;SDS011;8239;48.594;8.598;2022-12-10T00:21:10;45.57;;;22.77;;
16262;SDS011;8239;48.594;8.598;2022-12-10T00:23:39;48.93;;;23.00;;
16262;SDS011;8239;48.594;8.598;2022-12-10T00:26:07;55.77;;;23.97;;
16262;SDS011;8239;48.594;8.598;2022-12-10T00:28:38;52.30;;;23.97;;
16262;SDS011;8239;48.594;8.598;2022-12-10T00:31:06;54.10;;;24.03;;
16262;SDS011;8239;48.594;8.598;2022-12-10T00:33:35;54.43;;;25.97;;
16262;SDS011;8239;48.594;8.598;2022-12-10T00:36:04;61.67;;;26.13;;
16262;SDS011;8239;48.594;8.598;2022-12-10T00:38:33;62.73;;;26.10;;
16262;SDS011;8239;48.594;8.598;2022-12-10T00:41:00;58.67;;;25.37;;
16262;SDS011;8239;48.594;8.598;2022-12-10T00:43:28;59.13;;;25.27;;
16262;SDS011;8239;48.594;8.598;2022-12-10T00:45:55;58.03;;;24.83;;
16262;SDS011;8239;48.594;8.598;2022-12-10T00:48:22;57.20;;;24.17;;
16262;SDS011;8239;48.594;8.598;2022-12-10T00:50:56;59.03;;;23.70;;
16262;SDS011;8239;48.594;8.598;2022-12-10T00:53:25;59.40;;;24.73;;
16262;SDS011;8239;48.594;8.598;2022-12-10T00:55:53;62.17;;;24.80;;
16262;SDS011;8239;48.594;8.598;2022-12-10T00:58:21;59.57;;;24.00;;
16262;SDS011;8239;48.594;8.598;2022-12-10T01:00:48;57.17;;;25.03;;
16262;SDS011;8239;48.594;8.598;2022-12-10T01:03:15;59.87;;;25.23;;
16262;SDS011;8239;48.594;8.598;2022-12-10T01:05:42;60.27;;;24.97;;
16262;SDS011;8239;48.594;8.598;2022-12-10T01:08:09;60.47;;;24.10;;
16262;SDS011;8239;48.594;8.598;2022-12-10T01:10:37;64.93;;;26.93;;
16262;SDS011;8239;48.594;8.598;2022-12-10T01:13:04;66.27;;;26.40;;
16262;SDS011;8239;48.594;8.598;2022-12-10T01:15:31;61.17;;;25.33;;
16262;SDS011;8239;48.594;8.598;2022-12-10T01:18:04;65.50;;;26.13;;
16262;SDS011;8239;48.594;8.598;2022-12-10T01:20:33;63.50;;;25.40;;
16262;SDS011;8239;48.594;8.598;2022-12-10T01:23:02;66.07;;;26.17;;
16262;SDS011;8239;48.594;8.598;2022-12-10T01:25:29;61.13;;;25.53;;
16262;SDS011;8239;48.594;8.598;2022-12-10T01:27:58;60.33;;;24.53;;
16262;SDS011;8239;48.594;8.598;2022-12-10T01:30:25;59.93;;;24.77;;
16262;SDS011;8239;48.594;8.598;2022-12-10T01:32:51;60.77;;;25.23;;
16262;SDS011;8239;48.594;8.598;2022-12-10T01:35:18;65.07;;;26.20;;
16262;SDS011;8239;48.594;8.598;2022-12-10T01:37:46;59.83;;;24.47;;
16262;SDS011;8239;48.594;8.598;2022-12-10T01:40:13;61.83;;;24.87;;
16262;SDS011;8239;48.594;8.598;2022-12-10T01:42:39;61.27;;;24.90;;
16262;SDS011;8239;48.594;8.598;2022-12-10T01:45:10;58.37;;;24.73;;
16262;SDS011;8239;48.594;8.598;2022-12-10T01:47:38;57.93;;;24.60;;
16262;SDS011;8239;48.594;8.598;2022-12-10T01:50:06;62.93;;;25.63;;
16262;SDS011;8239;48.594;8.598;2022-12-10T01:52:34;62.07;;;25.23;;
16262;SDS011;8239;48.594;8.598;2022-12-10T01:55:06;56.90;;;24.27;;
16262;SDS011;8239;48.594;8.598;2022-12-10T01:57:54;56.33;;;24.60;;
16262;SDS011;8239;48.594;8.598;2022-12-10T02:00:22;55.80;;;24.60;;
16262;SDS011;8239;48.594;8.598;2022-12-10T02:02:51;60.80;;;24.70;;
16262;SDS011;8239;48.594;8.598;2022-12-10T02:05:23;63.20;;;26.17;;
16262;SDS011;8239;48.594;8.598;2022-12-10T02:07:57;61.13;;;25.03;;
16262;SDS011;8239;48.594;8.598;2022-12-10T02:10:34;63.23;;;25.97;;
16262;SDS011;8239;48.594;8.598;2022-12-10T02:13:10;59.00;;;24.77;;
16262;SDS011;8239;48.594;8.598;2022-12-10T02:15:43;63.50;;;25.47;;
16262;SDS011;8239;48.594;8.598;2022-12-10T02:18:18;64.17;;;25.30;;
16262;SDS011;8239;48.594;8.598;2022-12-10T02:20:48;59.13;;;25.47;;
16262;SDS011;8239;48.594;8.598;2022-12-10T02:23:18;59.77;;;25.17;;
16262;SDS011;8239;48.594;8.598;2022-12-10T02:25:59;56.23;;;23.80;;
16262;SDS011;8239;48.594;8.598;2022-12-10T02:28:31;58.13;;;25.00;;
16262;SDS011;8239;48.594;8.598;2022-12-10T02:31:06;61.77;;;25.53;;
16262;SDS011;8239;48.594;8.598;2022-12-10T02:33:36;59.90;;;26.27;;
16262;SDS011;8239;48.594;8.598;2022-12-10T02:36:05;64.17;;;26.73;;
16262;SDS011;8239;48.594;8.598;2022-12-10T02:38:36;64.57;;;26.03;;
16262;SDS011;8239;48.594;8.598;2022-12-10T02:41:08;63.10;;;27.30;;
16262;SDS011;8239;48.594;8.598;2022-12-10T02:43:40;61.67;;;28.10;;
16262;SDS011;8239;48.594;8.598;2022-12-10T02:46:10;62.60;;;27.80;;
16262;SDS011;8239;48.594;8.598;2022-12-10T02:48:37;63.67;;;26.43;;
16262;SDS011;8239;48.594;8.598;2022-12-10T02:51:06;60.60;;;26.17;;
16262;SDS011;8239;48.594;8.598;2022-12-10T02:53:33;62.10;;;26.93;;
16262;SDS011;8239;48.594;8.598;2022-12-10T02:56:08;64.23;;;27.30;;
16262;SDS011;8239;48.594;8.598;2022-12-10T02:58:43;61.23;;;26.30;;
16262;SDS011;8239;48.594;8.598;2022-12-10T03:01:19;63.50;;;27.17;;
16262;SDS011;8239;48.594;8.598;2022-12-10T03:03:55;65.47;;;27.43;;
16262;SDS011;8239;48.594;8.598;2022-12-10T03:06:27;63.80;;;27.17;;
16262;SDS011;8239;48.594;8.598;2022-12-10T03:08:59;67.30;;;26.97;;
16262;SDS011;8239;48.594;8.598;2022-12-10T03:11:29;60.83;;;25.33;;
16262;SDS011;8239;48.594;8.598;2022-12-10T03:13:57;66.17;;;26.23;;
16262;SDS011;8239;48.594;8.598;2022-12-10T03:16:31;68.13;;;27.77;;
16262;SDS011;8239;48.594;8.598;2022-12-10T03:19:03;63.77;;;28.30;;
16262;SDS011;8239;48.594;8.598;2022-12-10T03:21:32;64.13;;;27.07;;
16262;SDS011;8239;48.594;8.598;2022-12-10T03:24:01;65.67;;;27.17;;
16262;SDS011;8239;48.594;8.598;2022-12-10T03:26:29;63.03;;;27.93;;
16262;SDS011;8239;48.594;8.598;2022-12-10T03:28:58;66.10;;;28.60;;
16262;SDS011;8239;48.594;8.598;2022-12-10T03:31:31;68.60;;;28.73;;
16262;SDS011;8239;48.594;8.598;2022-12-10T03:34:00;68.47;;;28.40;;
16262;SDS011;8239;48.594;8.598;2022-12-10T03:36:28;67.67;;;28.13;;
16262;SDS011;8239;48.594;8.598;2022-12-10T03:38:57;64.87;;;28.30;;
16262;SDS011;8239;48.594;8.598;2022-12-10T03:41:24;66.90;;;27.73;;
16262;SDS011;8239;48.594;8.598;2022-12-10T03:43:52;64.83;;;27.57;;
16262;SDS011;8239;48.594;8.598;2022-12-10T03:46:21;69.97;;;28.60;;
16262;SDS011;8239;48.594;8.598;2022-12-10T03:48:50;62.23;;;27.53;;
16262;SDS011;8239;48.594;8.598;2022-12-10T03:51:17;65.37;;;27.87;;
16262;SDS011;8239;48.594;8.598;2022-12-10T03:53:44;70.23;;;27.53;;
16262;SDS011;8239;48.594;8.598;2022-12-10T03:56:14;63.93;;;27.87;;
16262;SDS011;8239;48.594;8.598;2022-12-10T03:58:42;64.70;;;27.83;;
16262;SDS011;8239;48.594;8.598;2022-12-10T04:01:09;64.33;;;27.37;;
16262;SDS011;8239;48.594;8.598;2022-12-10T04:03:36;65.20;;;26.97;;
16262;SDS011;8239;48.594;8.598;2022-12-10T04:06:06;65.50;;;27.67;;
16262;SDS011;8239;48.594;8.598;2022-12-10T04:08:34;65.13;;;27.77;;
16262;SDS011;8239;48.594;8.598;2022-12-10T04:11:02;67.63;;;28.10;;
16262;SDS011;8239;48.594;8.598;2022-12-10T04:13:31;64.07;;;27.73;;
16262;SDS011;8239;48.594;8.598;2022-12-10T04:16:16;62.73;;;25.70;;
16262;SDS011;8239;48.594;8.598;2022-12-10T04:18:56;65.60;;;27.57;;
16262;SDS011;8239;48.594;8.598;2022-12-10T04:21:26;64.27;;;27.37;;
16262;SDS011;8239;48.594;8.598;2022-12-10T04:24:11;69.93;;;27.97;;
16262;SDS011;8239;48.594;8.598;2022-12-10T04:26:57;67.23;;;26.73;;
16262;SDS011;8239;48.594;8.598;2022-12-10T04:29:26;65.80;;;26.73;;
16262;SDS011;8239;48.594;8.598;2022-12-10T04:31:54;61.00;;;26.93;;
16262;SDS011;8239;48.594;8.598;2022-12-10T04:34:22;66.60;;;27.63;;
16262;SDS011;8239;48.594;8.598;2022-12-10T04:36:51;66.10;;;27.27;;
16262;SDS011;8239;48.594;8.598;2022-12-10T04:39:19;60.03;;;25.60;;
16262;SDS011;8239;48.594;8.598;2022-12-10T04:41:47;60.80;;;26.07;;
16262;SDS011;8239;48.594;8.598;2022-12-10T04:44:14;59.53;;;25.10;;
16262;SDS011;8239;48.594;8.598;2022-12-10T04:46:42;63.03;;;27.10;;
16262;SDS011;8239;48.594;8.598;2022-12-10T04:49:09;68.40;;;27.87;;
16262;SDS011;8239;48.594;8.598;2022-12-10T04:51:36;65.70;;;27.63;;
16262;SDS011;8239;48.594;8.598;2022-12-10T04:54:04;63.80;;;27.80;;
16262;SDS011;8239;48.594;8.598;2022-12-10T04:56:32;65.23;;;27.87;;
16262;SDS011;8239;48.594;8.598;2022-12-10T04:58:59;68.83;;;27.97;;
16262;SDS011;8239;48.594;8.598;2022-12-10T05:01:27;66.03;;;27.97;;
16262;SDS011;8239;48.594;8.598;2022-12-10T05:03:57;69.77;;;28.57;;
16262;SDS011;8239;48.594;8.598;2022-12-10T05:06:24;65.07;;;26.43;;
16262;SDS011;8239;48.594;8.598;2022-12-10T05:08:52;69.93;;;27.40;;
16262;SDS011;8239;48.594;8.598;2022-12-10T05:11:21;68.97;;;27.67;;
16262;SDS011;8239;48.594;8.598;2022-12-10T05:13:49;70.10;;;27.30;;
16262;SDS011;8239;48.594;8.598;2022-12-10T05:16:18;66.73;;;27.07;;
16262;SDS011;8239;48.594;8.598;2022-12-10T05:18:46;71.80;;;27.93;;
16262;SDS011;8239;48.594;8.598;2022-12-10T05:21:15;72.67;;;28.13;;
16262;SDS011;8239;48.594;8.598;2022-12-10T05:23:44;63.90;;;25.80;;
16262;SDS011;8239;48.594;8.598;2022-12-10T05:26:12;63.77;;;27.30;;
16262;SDS011;8239;48.594;8.598;2022-12-10T05:28:42;58.97;;;26.07;;
16262;SDS011;8239;48.594;8.598;2022-12-10T05:31:12;68.10;;;28.27;;
16262;SDS011;8239;48.594;8.598;2022-12-10T05:33:39;61.83;;;26.43;;
16262;SDS011;8239;48.594;8.598;2022-12-10T05:36:06;63.13;;;26.53;;
16262;SDS011;8239;48.594;8.598;2022-12-10T05:38:35;67.30;;;27.60;;
16262;SDS011;8239;48.594;8.598;2022-12-10T05:41:02;63.27;;;26.20;;
16262;SDS011;8239;48.594;8.598;2022-12-10T05:43:30;59.87;;;26.53;;
16262;SDS011;8239;48.594;8.598;2022-12-10T05:46:00;59.23;;;26.63;;
16262;SDS011;8239;48.594;8.598;2022-12-10T05:48:28;56.67;;;25.30;;
16262;SDS011;8239;48.594;8.598;2022-12-10T05:50:55;56.33;;;25.27;;
16262;SDS011;8239;48.594;8.598;2022-12-10T05:53:22;60.87;;;25.90;;
16262;SDS011;8239;48.594;8.598;2022-12-10T05:55:49;59.13;;;26.10;;
16262;SDS011;8239;48.594;8.598;2022-12-10T05:58:26;52.23;;;25.07;;
16262;SDS011;8239;48.594;8.598;2022-12-10T06:00:54;56.53;;;26.03;;
16262;SDS011;8239;48.594;8.598;2022-12-10T06:03:22;53.67;;;25.43;;
16262;SDS011;8239;48.594;8.598;2022-12-10T06:05:50;52.87;;;26.23;;
16262;SDS011;8239;48.594;8.598;2022-12-10T06:08:17;55.83;;;24.57;;
16262;SDS011;8239;48.594;8.598;2022-12-10T06:10:44;52.27;;;25.43;;
16262;SDS011;8239;48.594;8.598;2022-12-10T06:13:11;54.70;;;26.00;;
16262;SDS011;8239;48.594;8.598;2022-12-10T06:15:38;51.67;;;25.77;;
16262;SDS011;8239;48.594;8.598;2022-12-10T06:18:06;51.77;;;24.93;;
16262;SDS011;8239;48.594;8.598;2022-12-10T06:20:37;54.13;;;25.63;;
16262;SDS011;8239;48.594;8.598;2022-12-10T06:23:04;51.87;;;25.63;;
16262;SDS011;8239;48.594;8.598;2022-12-10T06:25:33;53.53;;;25.50;;
16262;SDS011;8239;48.594;8.598;2022-12-10T06:28:00;56.87;;;27.40;;
16262;SDS011;8239;48.594;8.598;2022-12-10T06:30:27;53.73;;;24.80;;
16262;SDS011;8239;48.594;8.598;2022-12-10T06:32:54;50.73;;;24.80;;
16262;SDS011;8239;48.594;8.598;2022-12-10T06:35:21;51.10;;;25.37;;
16262;SDS011;8239;48.594;8.598;2022-12-10T06:37:50;53.23;;;25.77;;
16262;SDS011;8239;48.594;8.598;2022-12-10T06:40:17;56.03;;;26.07;;
16262;SDS011;8239;48.594;8.598;2022-12-10T06:42:44;52.83;;;25.73;;
16262;SDS011;8239;48.594;8.598;2022-12-10T06:45:11;50.83;;;25.23;;
16262;SDS011;8239;48.594;8.598;2022-12-10T06:47:39;55.97;;;27.57;;
16262;SDS011;8239;48.594;8.598;2022-12-10T06:50:06;52.27;;;27.87;;
16262;SDS011;8239;48.594;8.598;2022-12-10T06:52:33;53.07;;;27.53;;
16262;SDS011;8239;48.594;8.598;2022-12-10T06:55:01;49.63;;;26.13;;
16262;SDS011;8239;48.594;8.598;2022-12-10T06:57:28;51.67;;;26.50;;
16262;SDS011;8239;48.594;8.598;2022-12-10T06:59:56;47.53;;;23.23;;
16262;SDS011;8239;48.594;8.598;2022-12-10T07:02:23;45.03;;;23.10;;
16262;SDS011;8239;48.594;8.598;2022-12-10T07:04:50;43.63;;;23.07;;
16262;SDS011;8239;48.594;8.598;2022-12-10T07:07:21;48.30;;;23.33;;
16262;SDS011;8239;48.594;8.598;2022-12-10T07:09:48;45.00;;;23.10;;
16262;SDS011;8239;48.594;8.598;2022-12-10T07:12:16;41.37;;;21.37;;
16262;SDS011;8239;48.594;8.598;2022-12-10T07:14:43;42.10;;;22.37;;
16262;SDS011;8239;48.594;8.598;2022-12-10T07:17:11;43.63;;;21.87;;
16262;SDS011;8239;48.594;8.598;2022-12-10T07:19:38;41.77;;;22.63;;
16262;SDS011;8239;48.594;8.598;2022-12-10T07:22:05;39.83;;;21.50;;
16262;SDS011;8239;48.594;8.598;2022-12-10T07:24:32;42.67;;;22.40;;
16262;SDS011;8239;48.594;8.598;2022-12-10T07:26:59;38.87;;;21.53;;
16262;SDS011;8239;48.594;8.598;2022-12-10T07:29:28;40.30;;;21.10;;
16262;SDS011;8239;48.594;8.598;2022-12-10T07:31:55;37.13;;;21.07;;
16262;SDS011;8239;48.594;8.598;2022-12-10T07:34:22;41.13;;;21.80;;
16262;SDS011;8239;48.594;8.598;2022-12-10T07:36:49;37.57;;;20.30;;
16262;SDS011;8239;48.594;8.598;2022-12-10T07:39:16;38.13;;;20.23;;
16262;SDS011;8239;48.594;8.598;2022-12-10T07:41:43;38.50;;;20.90;;
16262;SDS011;8239;48.594;8.598;2022-12-10T07:44:11;36.33;;;20.43;;
16262;SDS011;8239;48.594;8.598;2022-12-10T07:46:40;35.57;;;20.53;;
16262;SDS011;8239;48.594;8.598;2022-12-10T07:49:07;36.90;;;20.63;;
16262;SDS011;8239;48.594;8.598;2022-12-10T07:51:34;34.70;;;19.43;;
16262;SDS011;8239;48.594;8.598;2022-12-10T07:54:02;35.00;;;19.43;;
16262;SDS011;8239;48.594;8.598;2022-12-10T07:56:29;35.70;;;19.27;;
16262;SDS011;8239;48.594;8.598;2022-12-10T07:58:56;33.93;;;19.83;;
16262;SDS011;8239;48.594;8.598;2022-12-10T08:01:24;37.67;;;20.43;;
16262;SDS011;8239;48.594;8.598;2022-12-10T08:03:53;33.03;;;19.17;;
16262;SDS011;8239;48.594;8.598;2022-12-10T08:06:22;36.53;;;19.83;;
16262;SDS011;8239;48.594;8.598;2022-12-10T08:08:51;34.93;;;19.27;;
16262;SDS011;8239;48.594;8.598;2022-12-10T08:11:19;32.53;;;19.60;;
16262;SDS011;8239;48.594;8.598;2022-12-10T08:13:47;37.83;;;20.73;;
16262;SDS011;8239;48.594;8.598;2022-12-10T08:16:16;31.07;;;18.70;;
16262;SDS011;8239;48.594;8.598;2022-12-10T08:18:44;30.43;;;18.37;;
16262;SDS011;8239;48.594;8.598;2022-12-10T08:21:14;34.17;;;19.57;;
16262;SDS011;8239;48.594;8.598;2022-12-10T08:23:42;32.10;;;19.30;;
16262;SDS011;8239;48.594;8.598;2022-12-10T08:26:11;32.20;;;18.47;;
16262;SDS011;8239;48.594;8.598;2022-12-10T08:28:39;30.43;;;18.27;;
16262;SDS011;8239;48.594;8.598;2022-12-10T08:31:07;30.40;;;18.33;;
16262;SDS011;8239;48.594;8.598;2022-12-10T08:33:36;30.60;;;18.37;;
16262;SDS011;8239;48.594;8.598;2022-12-10T08:36:04;31.93;;;17.77;;
16262;SDS011;8239;48.594;8.598;2022-12-10T08:38:35;30.17;;;18.73;;
16262;SDS011;8239;48.594;8.598;2022-12-10T08:41:05;29.90;;;17.30;;
16262;SDS011;8239;48.594;8.598;2022-12-10T08:43:32;30.60;;;17.33;;
16262;SDS011;8239;48.594;8.598;2022-12-10T08:46:00;29.67;;;17.47;;
16262;SDS011;8239;48.594;8.598;2022-12-10T08:48:27;27.03;;;16.70;;
16262;SDS011;8239;48.594;8.598;2022-12-10T08:50:54;28.07;;;16.33;;
16262;SDS011;8239;48.594;8.598;2022-12-10T08:53:21;26.93;;;16.87;;
16262;SDS011;8239;48.594;8.598;2022-12-10T08:55:50;25.23;;;15.60;;
16262;SDS011;8239;48.594;8.598;2022-12-10T08:58:18;27.20;;;16.07;;
16262;SDS011;8239;48.594;8.598;2022-12-10T09:00:45;26.30;;;16.47;;
16262;SDS011;8239;48.594;8.598;2022-12-10T09:03:12;27.57;;;16.87;;
16262;SDS011;8239;48.594;8.598;2022-12-10T09:05:39;30.43;;;18.13;;
16262;SDS011;8239;48.594;8.598;2022-12-10T09:08:06;29.90;;;18.07;;
16262;SDS011;8239;48.594;8.598;2022-12-10T09:10:35;30.23;;;19.10;;
16262;SDS011;8239;48.594;8.598;2022-12-10T09:13:04;45.67;;;27.73;;
16262;SDS011;8239;48.594;8.598;2022-12-10T09:15:31;30.23;;;19.07;;
16262;SDS011;8239;48.594;8.598;2022-12-10T09:17:59;27.57;;;16.10;;
16262;SDS011;8239;48.594;8.598;2022-12-10T09:20:26;26.47;;;15.83;;
16262;SDS011;8239;48.594;8.598;2022-12-10T09:22:53;26.97;;;16.37;;
16262;SDS011;8239;48.594;8.598;2022-12-10T09:25:20;27.23;;;15.93;;
16262;SDS011;8239;48.594;8.598;2022-12-10T09:27:47;27.57;;;16.23;;
16262;SDS011;8239;48.594;8.598;2022-12-10T09:30:16;28.27;;;17.87;;
16262;SDS011;8239;48.594;8.598;2022-12-10T09:32:43;33.20;;;19.97;;
16262;SDS011;8239;48.594;8.598;2022-12-10T09:35:10;36.07;;;20.23;;
16262;SDS011;8239;48.594;8.598;2022-12-10T09:37:38;34.87;;;20.50;;
16262;SDS011;8239;48.594;8.598;2022-12-10T09:40:05;35.07;;;21.93;;
16262;SDS011;8239;48.594;8.598;2022-12-10T09:42:34;27.80;;;18.00;;
16262;SDS011;8239;48.594;8.598;2022-12-10T09:45:12;24.37;;;15.93;;
16262;SDS011;8239;48.594;8.598;2022-12-10T09:47:46;25.87;;;15.97;;
16262;SDS011;8239;48.594;8.598;2022-12-10T09:50:23;26.73;;;15.23;;
16262;SDS011;8239;48.594;8.598;2022-12-10T09:52:54;25.27;;;15.83;;
16262;SDS011;8239;48.594;8.598;2022-12-10T09:55:25;25.13;;;15.57;;
16262;SDS011;8239;48.594;8.598;2022-12-10T09:57:58;22.03;;;14.90;;
16262;SDS011;8239;48.594;8.598;2022-12-10T10:00:32;27.80;;;16.93;;
16262;SDS011;8239;48.594;8.598;2022-12-10T10:03:01;25.47;;;16.23;;
16262;SDS011;8239;48.594;8.598;2022-12-10T10:05:30;26.40;;;16.07;;
16262;SDS011;8239;48.594;8.598;2022-12-10T10:07:59;27.27;;;16.20;;
16262;SDS011;8239;48.594;8.598;2022-12-10T10:10:29;25.77;;;15.43;;
16262;SDS011;8239;48.594;8.598;2022-12-10T10:12:58;23.37;;;15.37;;
16262;SDS011;8239;48.594;8.598;2022-12-10T10:15:39;22.03;;;15.10;;
16262;SDS011;8239;48.594;8.598;2022-12-10T10:18:09;22.47;;;14.30;;
16262;SDS011;8239;48.594;8.598;2022-12-10T10:20:41;23.40;;;15.07;;
16262;SDS011;8239;48.594;8.598;2022-12-10T10:23:08;22.53;;;14.50;;
16262;SDS011;8239;48.594;8.598;2022-12-10T10:25:39;22.87;;;14.77;;
16262;SDS011;8239;48.594;8.598;2022-12-10T10:28:09;22.63;;;14.63;;
16262;SDS011;8239;48.594;8.598;2022-12-10T10:30:41;23.73;;;14.60;;
16262;SDS011;8239;48.594;8.598;2022-12-10T10:33:10;22.77;;;14.53;;
16262;SDS011;8239;48.594;8.598;2022-12-10T10:35:42;21.70;;;14.47;;
16262;SDS011;8239;48.594;8.598;2022-12-10T10:38:15;23.27;;;14.33;;
16262;SDS011;8239;48.594;8.598;2022-12-10T10:40:46;22.07;;;13.87;;
16262;SDS011;8239;48.594;8.598;2022-12-10T10:43:18;20.70;;;13.70;;
16262;SDS011;8239;48.594;8.598;2022-12-10T10:45:50;19.13;;;13.17;;
16262;SDS011;8239;48.594;8.598;2022-12-10T10:48:21;20.97;;;14.00;;
16262;SDS011;8239;48.594;8.598;2022-12-10T10:50:49;19.77;;;13.37;;
16262;SDS011;8239;48.594;8.598;2022-12-10T10:53:30;20.63;;;12.90;;
16262;SDS011;8239;48.594;8.598;2022-12-10T10:56:04;19.03;;;12.60;;
16262;SDS011;8239;48.594;8.598;2022-12-10T10:58:34;21.17;;;13.57;;
16262;SDS011;8239;48.594;8.598;2022-12-10T11:01:04;18.77;;;12.43;;
16262;SDS011;8239;48.594;8.598;2022-12-10T11:03:33;19.97;;;13.27;;
16262;SDS011;8239;48.594;8.598;2022-12-10T11:06:05;21.30;;;12.83;;
16262;SDS011;8239;48.594;8.598;2022-12-10T11:08:34;18.83;;;12.33;;
16262;SDS011;8239;48.594;8.598;2022-12-10T11:11:04;17.13;;;11.67;;
16262;SDS011;8239;48.594;8.598;2022-12-10T11:13:36;17.30;;;11.80;;
16262;SDS011;8239;48.594;8.598;2022-12-10T11:16:11;16.60;;;11.70;;
16262;SDS011;8239;48.594;8.598;2022-12-10T11:18:50;16.37;;;11.17;;
16262;SDS011;8239;48.594;8.598;2022-12-10T11:21:20;19.47;;;12.27;;
16262;SDS011;8239;48.594;8.598;2022-12-10T11:23:48;17.90;;;12.20;;
16262;SDS011;8239;48.594;8.598;2022-12-10T11:26:28;19.63;;;12.37;;
16262;SDS011;8239;48.594;8.598;2022-12-10T11:29:08;18.30;;;12.03;;
16262;SDS011;8239;48.594;8.598;2022-12-10T11:31:48;17.60;;;11.97;;
16262;SDS011;8239;48.594;8.598;2022-12-10T11:34:30;17.23;;;11.83;;
16262;SDS011;8239;48.594;8.598;2022-12-10T11:37:08;18.57;;;12.90;;
16262;SDS011;8239;48.594;8.598;2022-12-10T11:39:48;17.90;;;12.40;;
16262;SDS011;8239;48.594;8.598;2022-12-10T11:42:35;15.67;;;10.27;;
16262;SDS011;8239;48.594;8.598;2022-12-10T11:45:08;16.80;;;11.50;;
16262;SDS011;8239;48.594;8.598;2022-12-10T11:47:50;15.00;;;10.43;;
16262;SDS011;8239;48.594;8.598;2022-12-10T11:50:31;14.90;;;11.23;;
16262;SDS011;8239;48.594;8.598;2022-12-10T11:53:08;15.07;;;10.87;;
16262;SDS011;8239;48.594;8.598;2022-12-10T11:55:47;14.70;;;10.63;;
16262;SDS011;8239;48.594;8.598;2022-12-10T12:01:13;14.33;;;9.47;;
16262;SDS011;8239;48.594;8.598;2022-12-10T12:03:54;14.13;;;9.87;;
16262;SDS011;8239;48.594;8.598;2022-12-10T12:06:51;15.20;;;10.33;;
16262;SDS011;8239;48.594;8.598;2022-12-10T12:09:47;18.27;;;10.90;;
16262;SDS011;8239;48.594;8.598;2022-12-10T12:12:27;14.83;;;10.50;;
16262;SDS011;8239;48.594;8.598;2022-12-10T12:15:08;14.73;;;9.63;;
16262;SDS011;8239;48.594;8.598;2022-12-10T12:17:45;15.47;;;10.47;;
16262;SDS011;8239;48.594;8.598;2022-12-10T12:20:20;15.97;;;10.80;;
16262;SDS011;8239;48.594;8.598;2022-12-10T12:22:52;14.10;;;10.60;;
16262;SDS011;8239;48.594;8.598;2022-12-10T12:25:23;17.30;;;10.93;;
16262;SDS011;8239;48.594;8.598;2022-12-10T12:27:55;13.90;;;10.00;;
16262;SDS011;8239;48.594;8.598;2022-12-10T12:30:28;14.20;;;9.90;;
16262;SDS011;8239;48.594;8.598;2022-12-10T12:33:01;13.30;;;9.70;;
16262;SDS011;8239;48.594;8.598;2022-12-10T12:35:36;14.10;;;9.80;;
16262;SDS011;8239;48.594;8.598;2022-12-10T12:38:14;13.37;;;8.60;;
16262;SDS011;8239;48.594;8.598;2022-12-10T12:40:56;12.03;;;8.87;;
16262;SDS011;8239;48.594;8.598;2022-12-10T12:43:28;14.20;;;9.70;;
16262;SDS011;8239;48.594;8.598;2022-12-10T12:46:09;13.33;;;9.33;;
16262;SDS011;8239;48.594;8.598;2022-12-10T12:48:41;16.30;;;10.43;;
16262;SDS011;8239;48.594;8.598;2022-12-10T12:51:19;16.37;;;11.27;;
16262;SDS011;8239;48.594;8.598;2022-12-10T12:53:49;18.20;;;11.83;;
16262;SDS011;8239;48.594;8.598;2022-12-10T12:56:19;20.20;;;11.50;;
16262;SDS011;8239;48.594;8.598;2022-12-10T12:58:55;16.00;;;10.57;;
16262;SDS011;8239;48.594;8.598;2022-12-10T13:01:32;17.87;;;10.67;;
16262;SDS011;8239;48.594;8.598;2022-12-10T13:04:02;15.07;;;10.40;;
16262;SDS011;8239;48.594;8.598;2022-12-10T13:06:33;15.30;;;10.07;;
16262;SDS011;8239;48.594;8.598;2022-12-10T13:09:22;16.30;;;10.20;;
16262;SDS011;8239;48.594;8.598;2022-12-10T13:14:54;13.10;;;9.33;;
16262;SDS011;8239;48.594;8.598;2022-12-10T13:17:28;13.63;;;9.27;;
16262;SDS011;8239;48.594;8.598;2022-12-10T13:23:02;13.97;;;9.03;;
16262;SDS011;8239;48.594;8.598;2022-12-10T13:25:39;14.07;;;9.13;;
16262;SDS011;8239;48.594;8.598;2022-12-10T13:31:06;14.03;;;9.50;;
16262;SDS011;8239;48.594;8.598;2022-12-10T13:33:47;15.80;;;9.50;;
16262;SDS011;8239;48.594;8.598;2022-12-10T13:36:20;21.77;;;13.50;;
16262;SDS011;8239;48.594;8.598;2022-12-10T13:39:11;18.80;;;11.53;;
16262;SDS011;8239;48.594;8.598;2022-12-10T13:45:23;13.53;;;8.60;;
16262;SDS011;8239;48.594;8.598;2022-12-10T13:48:22;14.30;;;8.77;;
16262;SDS011;8239;48.594;8.598;2022-12-10T13:51:02;13.93;;;8.97;;
16262;SDS011;8239;48.594;8.598;2022-12-10T13:53:47;12.77;;;8.37;;
16262;SDS011;8239;48.594;8.598;2022-12-10T13:56:29;13.23;;;8.40;;
16262;SDS011;8239;48.594;8.598;2022-12-10T13:59:06;13.83;;;8.20;;
16262;SDS011;8239;48.594;8.598;2022-12-10T14:01:44;13.47;;;8.27;;
16262;SDS011;8239;48.594;8.598;2022-12-10T14:07:14;12.83;;;8.27;;
16262;SDS011;8239;48.594;8.598;2022-12-10T14:09:46;12.67;;;8.53;;
16262;SDS011;8239;48.594;8.598;2022-12-10T14:12:18;12.30;;;8.47;;
16262;SDS011;8239;48.594;8.598;2022-12-10T14:14:50;13.93;;;8.83;;
16262;SDS011;8239;48.594;8.598;2022-12-10T14:17:23;13.30;;;8.30;;
16262;SDS011;8239;48.594;8.598;2022-12-10T14:19:57;14.10;;;8.80;;
16262;SDS011;8239;48.594;8.598;2022-12-10T14:22:26;11.77;;;7.70;;
16262;SDS011;8239;48.594;8.598;2022-12-10T14:24:59;10.40;;;6.87;;
16262;SDS011;8239;48.594;8.598;2022-12-10T14:27:29;10.87;;;7.30;;
16262;SDS011;8239;48.594;8.598;2022-12-10T14:30:00;11.83;;;7.90;;
16262;SDS011;8239;48.594;8.598;2022-12-10T14:32:32;12.10;;;6.97;;
16262;SDS011;8239;48.594;8.598;2022-12-10T14:35:02;10.73;;;6.77;;
16262;SDS011;8239;48.594;8.598;2022-12-10T14:37:31;10.33;;;6.90;;
16262;SDS011;8239;48.594;8.598;2022-12-10T14:40:05;12.03;;;7.43;;
16262;SDS011;8239;48.594;8.598;2022-12-10T14:42:33;11.63;;;7.47;;
16262;SDS011;8239;48.594;8.598;2022-12-10T14:45:06;10.73;;;7.13;;
16262;SDS011;8239;48.594;8.598;2022-12-10T14:47:38;11.77;;;7.90;;
16262;SDS011;8239;48.594;8.598;2022-12-10T14:50:06;11.63;;;8.30;;
16262;SDS011;8239;48.594;8.598;2022-12-10T14:52:39;13.37;;;7.80;;
16262;SDS011;8239;48.594;8.598;2022-12-10T14:55:12;12.33;;;7.80;;
16262;SDS011;8239;48.594;8.598;2022-12-10T14:57:41;12.23;;;7.90;;
16262;SDS011;8239;48.594;8.598;2022-12-10T15:00:12;12.53;;;8.50;;
16262;SDS011;8239;48.594;8.598;2022-12-10T15:02:43;12.10;;;7.80;;
16262;SDS011;8239;48.594;8.598;2022-12-10T15:05:13;13.17;;;8.30;;
16262;SDS011;8239;48.594;8.598;2022-12-10T15:07:44;15.03;;;9.00;;
16262;SDS011;8239;48.594;8.598;2022-12-10T15:10:20;14.27;;;9.03;;
16262;SDS011;8239;48.594;8.598;2022-12-10T15:12:51;15.03;;;9.60;;
16262;SDS011;8239;48.594;8.598;2022-12-10T15:15:21;29.30;;;14.37;;